Waterford, Canada
Current Conditions -  °F | °C
As of 1:00 AM on Saturday 25 Oct 2014 (Local Time) from CYHM Reporting Station
Overcast Overcast  
Wind Chill: 46°   Ceiling: 5900
Heat Index: 48°   Visibility: 12mi
Dew Point: 45°   Wind: 6mph
Humidity: 87%   Direction: 230°SW
Pressure: 29.92"   Gusts: NA
Location:  42.93°N, 80.28°W
Report Text: CYHM 250500Z 23005KT 12SM OVC059 09/07 A2992 RMK SC8 SLP136
Loading
Personal Weather Stations






























Interactive Weather Map
Tropical Storm Tracking
New forecast layout! Learn more

10-Day Weather Forecast

Advertisements
Track Severe Weather on mobile